KBNA/BNA METAR and TAF weather

Enter ICAO airport designator
Station Type Date Time Source
KBNA METAR 2018/04/20 07:53 UTC NOAA

KBNA 200753Z 34004KT 10SM CLR 04/00 A3036 RMK AO2 SLP282 T00390000


Station Type Date Time Source
KBNA Decoded METAR 2018/04/20 07:53 UTC NOAA

NASHVILLE INTERNATIONAL AIRPORT, TN, United States (KBNA) 36-07N 086-41W 210M
Apr 20, 2018 - 03:53 AM EDT / 2018.04.20 0753 UTC
Wind: from the NNW (340 degrees) at 5 MPH (4 KT):0
Visibility: 10 mile(s):0
Sky conditions: clear
Temperature: 39.0 F (3.9 C)
Dew Point: 32.0 F (0.0 C)
Relative Humidity: 75%
Pressure (altimeter): 30.36 in. Hg (1028 hPa)
ob: KBNA 200753Z 34004KT 10SM CLR 04/00 A3036 RMK AO2 SLP282 T00390000
cycle: 8

Station Type Date Time Source
KBNA TAF 2018/04/20 06:22 UTC NOAA

TAF KBNA 200520Z 2006/2106 01006KT P6SM SKC
FM202100 04009KT P6SM SKC


Example: see airport list